Time;durP1;ratioP1;P1;durP2;ratioP2;P2;SDS_P1;SDS_P2;PMS_P1;PMS_P2;Temp;Humidity;BMP_temperature;BMP_pressure;BME280_temperature;BME280_humidity;BME280_pressure;Samples;Min_cycle;Max_cycle;Signal;HPM_P1;HPM_P2
2022/03/24 00:01:46;;;;;;;;;46.33;39.00;;;;;15.03;30.38;102339.69;5010879;28;45478;-67
2022/03/24 00:04:12;;;;;;;;;47.50;39.25;;;;;14.88;30.25;102313.25;5012700;28;45468;-68
2022/03/24 00:06:37;;;;;;;;;51.50;39.00;;;;;14.81;30.44;102306.72;4985192;28;45625;-67
2022/03/24 00:09:04;;;;;;;;;44.50;38.75;;;;;14.78;30.46;102306.16;5018888;28;45682;-69
2022/03/24 00:11:30;;;;;;;;;47.00;39.67;;;;;14.76;30.42;102294.72;5012606;28;45507;-66
2022/03/24 00:13:56;;;;;;;;;37.75;33.50;;;;;14.83;30.50;102310.13;5007784;28;45491;-69
2022/03/24 00:16:21;;;;;;;;;52.50;42.00;;;;;14.86;30.76;102322.41;5018453;28;45217;-67
2022/03/24 00:18:47;;;;;;;;;55.50;41.00;;;;;14.74;30.97;102316.28;4988545;28;46804;-67
2022/03/24 00:21:13;;;;;;;;;49.75;39.75;;;;;14.74;30.70;102316.28;5014290;28;45496;-69
2022/03/24 00:23:38;;;;;;;;;47.00;39.50;;;;;14.74;30.84;102321.63;5000739;28;45531;-68
2022/03/24 00:26:04;;;;;;;;;47.25;38.50;;;;;14.67;30.70;102315.13;5018337;28;45428;-68
2022/03/24 00:28:33;;;;;;;;;52.00;44.00;;;;;14.67;31.45;102314.28;5000600;28;47538;-68
2022/03/24 00:30:59;;;;;;;;;52.75;42.50;;;;;14.63;31.02;102313.69;5017655;28;45417;-67
2022/03/24 00:33:25;;;;;;;;;47.25;38.75;;;;;14.67;30.99;102316.94;5018381;28;45424;-69
2022/03/24 00:35:51;;;;;;;;;46.50;39.75;;;;;14.58;31.14;102307.88;5000810;28;45816;-68
2022/03/24 00:38:16;;;;;;;;;50.00;40.75;;;;;14.51;31.22;102309.38;5000112;28;46347;-67
2022/03/24 00:40:43;;;;;;;;;43.00;35.00;;;;;14.42;31.15;102296.78;5017947;28;45464;-66
2022/03/24 00:43:08;;;;;;;;;48.75;41.00;;;;;14.33;31.45;102295.72;5018556;28;45507;-69
2022/03/24 00:45:34;;;;;;;;;49.25;42.75;;;;;14.29;31.60;102297.81;5018251;28;45473;-69
2022/03/24 00:47:59;;;;;;;;;46.00;38.00;;;;;13.93;31.26;102244.75;5018345;28;45219;-66
2022/03/24 00:50:25;;;;;;;;;47.25;39.25;;;;;14.19;32.18;102306.72;5017965;28;45389;-66
2022/03/24 00:52:50;;;;;;;;;50.75;40.50;;;;;14.14;31.87;102312.47;5018441;28;45325;-67
2022/03/24 00:55:18;;;;;;;;;48.25;39.25;;;;;13.89;32.41;102275.41;5017958;28;45523;-68
2022/03/24 00:57:49;;;;;;;;;46.75;35.75;;;;;14.05;32.32;102304.38;4999813;28;47754;-67
2022/03/24 01:00:16;;;;;;;;;47.00;38.50;;;;;12.98;32.09;102134.19;5016982;28;45334;-67
2022/03/24 01:02:42;;;;;;;;;45.75;37.50;;;;;13.89;32.19;102286.09;4998252;28;45514;-66
2022/03/24 01:05:08;;;;;;;;;37.50;33.00;;;;;14.03;32.27;102309.00;5008989;28;45538;-67
2022/03/24 01:07:35;;;;;;;;;41.50;35.50;;;;;14.00;32.26;102299.41;5018042;28;48318;-66
2022/03/24 01:10:01;;;;;;;;;47.50;39.25;;;;;14.01;32.03;102293.06;4999293;28;45967;-68
2022/03/24 01:12:28;;;;;;;;;52.75;41.50;;;;;13.86;32.52;102278.34;5017531;28;45229;-69
2022/03/24 01:14:55;;;;;;;;;48.25;38.25;;;;;13.90;32.35;102285.97;4999705;28;45527;-67
2022/03/24 01:17:23;;;;;;;;;49.75;38.75;;;;;13.85;32.40;102290.00;5017188;28;45959;-68
2022/03/24 01:19:49;;;;;;;;;46.75;37.50;;;;;13.74;32.87;102272.16;5017587;28;45492;-67
2022/03/24 01:22:14;;;;;;;;;45.00;35.75;;;;;13.81;32.40;102297.41;5016931;28;45324;-66
2022/03/24 01:24:40;;;;;;;;;45.00;38.00;;;;;13.74;32.71;102288.22;5018066;28;45254;-67
2022/03/24 01:27:05;;;;;;;;;48.50;39.75;;;;;13.67;32.47;102265.66;5017350;28;46132;-67
2022/03/24 01:29:32;;;;;;;;;46.25;36.75;;;;;13.76;32.70;102288.94;5017285;28;45467;-75
2022/03/24 01:31:58;;;;;;;;;45.25;36.00;;;;;13.74;32.83;102292.69;5017573;28;45314;-68
2022/03/24 01:34:24;;;;;;;;;43.00;36.33;;;;;13.75;32.67;102299.75;5017077;28;45598;-67
2022/03/24 01:36:52;;;;;;;;;49.00;39.00;;;;;13.50;32.67;102252.81;4982923;28;46567;-67
2022/03/24 01:39:18;;;;;;;;;44.75;37.00;;;;;13.41;32.80;102238.38;5016609;28;45281;-67
2022/03/24 01:41:46;;;;;;;;;44.75;35.50;;;;;13.76;32.76;102280.91;5017174;28;45456;-67
2022/03/24 01:44:17;;;;;;;;;43.33;35.00;;;;;13.32;33.00;102199.06;4999319;28;45449;-67
2022/03/24 01:47:03;;;;;;;;;46.50;36.00;;;;;13.89;32.86;102283.41;5003071;28;46722;-68
2022/03/24 01:49:32;;;;;;;;;44.50;36.50;;;;;13.80;32.43;102271.66;5017492;28;45371;-66
2022/03/24 01:51:58;;;;;;;;;38.50;34.25;;;;;13.85;32.56;102280.16;5016901;28;45506;-69
2022/03/24 01:54:27;;;;;;;;;43.25;35.75;;;;;13.81;32.53;102283.19;5017471;28;45624;-67
2022/03/24 01:56:53;;;;;;;;;45.25;37.50;;;;;13.80;32.81;102271.66;5016921;28;46578;-66
2022/03/24 01:59:19;;;;;;;;;43.50;33.75;;;;;13.85;32.33;102280.16;4997886;28;45788;-67
2022/03/24 02:01:46;;;;;;;;;40.50;33.25;;;;;13.76;32.92;102261.34;4993249;28;45515;-67
2022/03/24 02:04:14;;;;;;;;;45.25;36.50;;;;;13.84;32.58;102280.28;5017428;28;45216;-67
2022/03/24 02:06:40;;;;;;;;;44.00;37.50;;;;;13.77;32.34;102260.38;5017140;28;47124;-67
2022/03/24 02:09:06;;;;;;;;;45.33;38.00;;;;;13.72;32.62;102257.25;5016828;28;45463;-66
2022/03/24 02:11:33;;;;;;;;;47.75;39.75;;;;;13.79;32.88;102271.78;5016980;28;45452;-66
2022/03/24 02:13:59;;;;;;;;;46.00;37.00;;;;;13.23;33.12;102181.16;4998623;28;45524;-67
2022/03/24 02:16:30;;;;;;;;;40.00;34.50;;;;;13.42;32.89;102216.06;5016936;28;46476;-67
2022/03/24 02:18:59;;;;;;;;;42.75;35.75;;;;;13.73;32.96;102259.78;5014387;28;45477;-68
2022/03/24 02:21:25;;;;;;;;;39.75;34.25;;;;;13.75;32.73;102273.00;5016214;28;45462;-67
2022/03/24 02:23:53;;;;;;;;;47.75;38.50;;;;;13.67;32.65;102261.16;5016806;28;45380;-71
2022/03/24 02:26:19;;;;;;;;;48.00;38.25;;;;;13.76;33.18;102274.72;5013833;28;46479;-67
2022/03/24 02:28:45;;;;;;;;;43.00;35.75;;;;;13.74;33.07;102276.66;4998541;28;45275;-68
2022/03/24 02:31:11;;;;;;;;;45.50;37.50;;;;;13.66;33.43;102274.63;5015961;28;45641;-67
2022/03/24 02:33:37;;;;;;;;;45.75;37.00;;;;;13.61;33.06;102266.97;5016891;28;45343;-66
2022/03/24 02:36:04;;;;;;;;;42.50;35.75;;;;;13.59;33.22;102252.91;5016350;28;46388;-66
2022/03/24 02:38:32;;;;;;;;;48.25;38.50;;;;;13.54;33.76;102251.59;5016825;28;45526;-67
2022/03/24 02:40:57;;;;;;;;;41.00;33.75;;;;;13.55;33.68;102259.47;4998166;28;45311;-67
2022/03/24 02:43:24;;;;;;;;;48.00;38.50;;;;;13.43;33.54;102241.81;5016896;28;45562;-66
2022/03/24 02:45:50;;;;;;;;;43.50;36.00;;;;;13.57;33.72;102265.53;4994739;28;47660;-68
2022/03/24 02:48:16;;;;;;;;;46.50;36.75;;;;;13.40;33.77;102247.38;4996377;28;45490;-68
2022/03/24 02:50:43;;;;;;;;;43.75;36.75;;;;;13.45;33.99;102269.25;4999649;28;45538;-66
2022/03/24 02:53:09;;;;;;;;;41.25;35.50;;;;;13.45;33.89;102265.72;4999761;28;45624;-69
2022/03/24 02:55:35;;;;;;;;;45.00;37.00;;;;;13.39;33.67;102267.03;4999637;28;46285;-68
2022/03/24 02:58:11;;;;;;;;;44.50;36.75;;;;;13.44;34.18;102270.22;5000258;28;45426;-67
2022/03/24 03:00:38;;;;;;;;;47.00;37.50;;;;;13.52;34.00;102273.09;4998830;28;45541;-68
2022/03/24 03:03:03;;;;;;;;;45.00;36.00;;;;;13.40;33.84;102258.06;5000176;28;45290;-68
2022/03/24 03:05:28;;;;;;;;;44.67;37.00;;;;;13.43;33.43;102263.19;4999753;28;46706;-69
2022/03/24 03:07:54;;;;;;;;;42.00;35.33;;;;;13.41;33.82;102249.06;4999899;28;45399;-67
2022/03/24 03:10:23;;;;;;;;;36.75;31.25;;;;;13.30;33.77;102243.78;4999961;28;45488;-66
2022/03/24 03:12:48;;;;;;;;;45.50;36.00;;;;;13.44;34.44;102274.72;5000132;28;45307;-66
2022/03/24 03:15:13;;;;;;;;;44.50;36.50;;;;;13.28;34.39;102253.72;5014611;28;48184;-67
2022/03/24 03:17:39;;;;;;;;;45.75;37.75;;;;;13.27;34.28;102252.03;4998305;28;45501;-66
2022/03/24 03:20:07;;;;;;;;;42.00;35.00;;;;;13.21;34.05;102263.19;4999870;28;45687;-68
2022/03/24 03:22:42;;;;;;;;;45.50;37.50;;;;;13.23;34.41;102266.63;4999854;28;45991;-66
2022/03/24 03:25:08;;;;;;;;;46.50;34.50;;;;;13.16;34.49;102262.69;4999791;28;45945;-65
2022/03/24 03:27:34;;;;;;;;;40.75;35.00;;;;;13.14;34.88;102278.00;4999558;28;45308;-67
2022/03/24 03:30:00;;;;;;;;;45.75;37.75;;;;;13.08;34.93;102280.19;4999404;28;45308;-67
2022/03/24 03:32:25;;;;;;;;;49.75;39.75;;;;;12.88;35.21;102245.38;4998631;28;45360;-67
2022/03/24 03:34:50;;;;;;;;;46.25;36.75;;;;;12.96;35.08;102273.16;4999089;28;45540;-66
2022/03/24 03:37:16;;;;;;;;;45.25;35.75;;;;;12.92;35.18;102271.69;4999166;28;45458;-67
2022/03/24 03:39:41;;;;;;;;;44.75;37.50;;;;;12.88;35.03;102267.59;4999329;28;45507;-67
2022/03/24 03:42:08;;;;;;;;;49.00;38.25;;;;;12.89;35.20;102279.97;5014108;28;45873;-68
2022/03/24 03:44:34;;;;;;;;;42.50;33.25;;;;;12.76;35.69;102257.88;5006559;28;47925;-66
2022/03/24 03:47:01;;;;;;;;;46.75;36.50;;;;;12.83;35.61;102275.13;5003821;28;45413;-67
2022/03/24 03:49:26;;;;;;;;;47.75;36.75;;;;;12.82;35.47;102273.41;5015255;28;45213;-67
2022/03/24 03:51:52;;;;;;;;;44.75;35.50;;;;;12.39;35.85;102202.06;5019378;28;45425;-68
2022/03/24 03:54:17;;;;;;;;;44.75;37.00;;;;;11.67;35.74;102086.84;5005316;28;45459;-65
2022/03/24 03:56:43;;;;;;;;;46.75;38.50;;;;;12.70;35.73;102263.69;5018939;28;45241;-66
2022/03/24 03:59:08;;;;;;;;;45.50;36.50;;;;;12.66;35.84;102259.56;5019206;28;45463;-69
2022/03/24 04:01:36;;;;;;;;;43.00;36.00;;;;;12.80;35.56;102275.31;5006529;28;45476;-67
2022/03/24 04:04:04;;;;;;;;;44.75;37.25;;;;;12.75;35.96;102267.69;5003951;28;46896;-66
2022/03/24 04:06:29;;;;;;;;;48.50;38.75;;;;;12.68;36.11;102255.81;5007713;28;45242;-67
2022/03/24 04:08:54;;;;;;;;;46.50;36.00;;;;;12.74;36.34;102270.47;4999367;28;45242;-67
2022/03/24 04:11:20;;;;;;;;;47.00;38.50;;;;;12.33;36.42;102199.03;5008802;28;45381;-68
2022/03/24 04:13:46;;;;;;;;;45.75;36.00;;;;;12.71;36.18;102276.91;4998800;28;45953;-68
2022/03/24 04:16:13;;;;;;;;;46.25;39.00;;;;;12.66;35.97;102263.09;4999495;28;46285;-68
2022/03/24 04:18:40;;;;;;;;;44.50;36.50;;;;;12.61;36.35;102254.56;4999032;28;45566;-67
2022/03/24 04:21:07;;;;;;;;;41.25;35.00;;;;;12.69;36.45;102267.34;4999406;28;45568;-68
2022/03/24 04:23:33;;;;;;;;;46.75;38.00;;;;;12.74;36.25;102271.34;4980868;28;47648;-66
2022/03/24 04:25:59;;;;;;;;;46.25;37.75;;;;;12.76;36.36;102273.88;4983976;28;45982;-66
2022/03/24 04:28:24;;;;;;;;;48.75;39.50;;;;;12.69;36.71;102262.84;5018621;28;45395;-69
2022/03/24 04:30:50;;;;;;;;;46.75;38.00;;;;;12.67;36.76;102272.78;5017386;28;45668;-69
2022/03/24 04:33:15;;;;;;;;;50.50;38.00;;;;;12.25;36.52;102207.63;4999627;28;46677;-66
2022/03/24 04:35:41;;;;;;;;;47.50;39.75;;;;;12.62;36.69;102261.63;4984230;28;45545;-69
2022/03/24 04:38:08;;;;;;;;;48.00;38.50;;;;;12.62;36.77;102269.66;5018578;28;45579;-66
2022/03/24 04:40:34;;;;;;;;;46.50;35.75;;;;;12.58;36.86;102265.50;5018521;28;45467;-68
2022/03/24 04:42:59;;;;;;;;;47.50;38.00;;;;;12.58;37.07;102267.31;4983505;28;46860;-69
2022/03/24 04:45:27;;;;;;;;;47.00;37.75;;;;;12.48;37.03;102254.72;5017584;28;45384;-71
2022/03/24 04:47:54;;;;;;;;;39.25;34.00;;;;;12.12;37.05;102199.72;5000541;28;45339;-68
2022/03/24 04:50:19;;;;;;;;;41.75;35.50;;;;;12.55;36.99;102265.72;5018049;28;45476;-67
2022/03/24 04:52:46;;;;;;;;;40.50;33.00;;;;;12.55;37.04;102249.72;5018323;28;47028;-68
2022/03/24 04:55:13;;;;;;;;;38.00;34.00;;;;;12.57;37.50;102257.63;5018190;28;45437;-67
2022/03/24 04:57:38;;;;;;;;;43.75;36.25;;;;;12.67;37.33;102263.94;5018036;28;45210;-67
2022/03/24 05:00:06;;;;;;;;;46.75;39.00;;;;;12.15;37.17;102186.16;4997026;28;45601;-69
2022/03/24 05:02:33;;;;;;;;;46.00;36.00;;;;;12.67;37.57;102264.78;5015247;28;47565;-68
2022/03/24 05:04:58;;;;;;;;;47.00;37.50;;;;;12.53;37.44;102238.34;5016541;28;45312;-70
2022/03/24 05:07:23;;;;;;;;;46.25;37.25;;;;;12.59;37.02;102245.00;5018127;28;45832;-69
2022/03/24 05:09:53;;;;;;;;;47.50;36.75;;;;;12.68;37.30;102257.63;5006050;28;45457;-67
2022/03/24 05:12:19;;;;;;;;;44.75;37.75;;;;;12.73;37.41;102268.78;5004215;28;46779;-69
2022/03/24 05:14:44;;;;;;;;;42.00;34.25;;;;;12.74;37.39;102266.00;4999845;28;45333;-69
2022/03/24 05:17:09;;;;;;;;;46.75;37.75;;;;;12.75;36.84;102262.34;5017035;28;45174;-68
2022/03/24 05:19:39;;;;;;;;;40.75;34.25;;;;;12.71;37.53;102270.72;5012190;28;46681;-68
2022/03/24 05:22:05;;;;;;;;;47.25;38.00;;;;;12.62;38.16;102268.78;4997902;28;46446;-68
2022/03/24 05:24:30;;;;;;;;;45.00;37.50;;;;;12.59;37.85;102263.66;4997701;28;45449;-67
2022/03/24 05:26:56;;;;;;;;;42.50;36.25;;;;;12.59;37.81;102277.88;5000945;28;45579;-67
2022/03/24 05:29:22;;;;;;;;;46.50;38.00;;;;;12.59;38.12;102269.00;5001129;28;45400;-69
2022/03/24 05:31:47;;;;;;;;;47.50;38.00;;;;;12.35;37.70;102227.28;4997754;28;46477;-69
2022/03/24 05:34:12;;;;;;;;;49.00;39.75;;;;;12.52;37.88;102273.97;5017656;28;45175;-67
2022/03/24 05:36:38;;;;;;;;;46.75;39.00;;;;;12.54;38.18;102280.03;5032805;28;45326;-69
2022/03/24 05:39:04;;;;;;;;;47.50;38.00;;;;;12.52;37.96;102275.81;4998819;28;45333;-70
2022/03/24 05:41:30;;;;;;;;;45.75;38.25;;;;;12.39;38.06;102251.88;4995632;28;48427;-68
2022/03/24 05:44:04;;;;;;;;;44.75;36.25;;;;;12.48;38.30;102270.72;4979856;28;45610;-68
2022/03/24 05:46:34;;;;;;;;;45.75;38.25;;;;;12.40;38.90;102259.75;4997547;28;45500;-69
2022/03/24 05:49:01;;;;;;;;;46.00;38.75;;;;;12.42;38.64;102273.88;5011969;28;45523;-68
2022/03/24 05:51:27;;;;;;;;;41.75;36.00;;;;;12.35;38.39;102264.63;4995919;28;48445;-67
2022/03/24 05:53:53;;;;;;;;;47.75;36.25;;;;;12.33;38.30;102271.03;4979257;28;45224;-67
2022/03/24 05:56:19;;;;;;;;;46.00;35.25;;;;;12.34;38.86;102268.25;4989701;28;45271;-69
2022/03/24 05:58:45;;;;;;;;;48.50;40.00;;;;;12.32;38.43;102264.84;5017387;28;45231;-67
2022/03/24 06:01:11;;;;;;;;;47.00;38.25;;;;;12.30;38.54;102269.47;5016167;28;46355;-68
2022/03/24 06:03:37;;;;;;;;;44.75;36.00;;;;;12.25;38.66;102258.31;5016921;28;45306;-68
2022/03/24 06:06:06;;;;;;;;;46.75;38.50;;;;;12.46;38.57;102285.13;4999116;28;45397;-68
2022/03/24 06:08:33;;;;;;;;;47.00;35.75;;;;;12.52;38.28;102279.31;4999052;28;45507;-67
2022/03/24 06:11:00;;;;;;;;;44.00;36.25;;;;;12.51;38.59;102284.78;5016124;28;46735;-68
2022/03/24 06:13:26;;;;;;;;;46.75;38.00;;;;;12.54;38.81;102285.38;5016491;28;45438;-69
2022/03/24 06:15:54;;;;;;;;;49.00;40.00;;;;;12.56;38.28;102279.94;5016640;28;45476;-67
2022/03/24 06:18:20;;;;;;;;;44.00;37.25;;;;;12.55;38.47;102287.06;5016348;28;45326;-67
2022/03/24 06:20:45;;;;;;;;;43.75;36.50;;;;;12.46;38.37;102278.00;5015802;28;46680;-67
2022/03/24 06:23:11;;;;;;;;;48.00;38.75;;;;;12.52;38.64;102284.66;5004811;28;46166;-68
2022/03/24 06:25:39;;;;;;;;;49.50;39.00;;;;;12.37;38.23;102259.16;4995649;28;45413;-70
2022/03/24 06:28:05;;;;;;;;;49.75;39.50;;;;;12.56;38.34;102291.44;4999320;28;45426;-67
2022/03/24 06:30:31;;;;;;;;;48.75;37.25;;;;;12.62;38.75;102287.47;5015791;28;45623;-68
2022/03/24 06:32:57;;;;;;;;;46.75;37.75;;;;;12.66;38.82;102284.44;5015492;28;45500;-70
2022/03/24 06:35:22;;;;;;;;;49.75;41.25;;;;;12.70;38.64;102277.88;5016763;28;45336;-66
2022/03/24 06:37:48;;;;;;;;;44.00;36.75;;;;;12.77;38.48;102286.25;4999039;28;45467;-68
2022/03/24 06:40:14;;;;;;;;;49.25;39.75;;;;;12.71;38.05;102270.72;5016057;28;45475;-70
2022/03/24 06:42:40;;;;;;;;;48.75;38.50;;;;;12.83;38.38;102291.13;4998453;28;45310;-69
2022/03/24 06:45:07;;;;;;;;;50.50;39.75;;;;;12.80;37.81;102283.34;5014959;28;45502;-68
2022/03/24 06:47:33;;;;;;;;;48.25;39.50;;;;;12.58;37.92;102253.97;5007883;28;45362;-71
2022/03/24 06:49:59;;;;;;;;;46.00;38.00;;;;;12.75;38.20;102282.84;5003159;28;46293;-73
2022/03/24 06:52:24;;;;;;;;;47.75;39.50;;;;;12.77;37.79;102288.91;5000864;28;45208;-68
2022/03/24 06:54:50;;;;;;;;;48.50;39.25;;;;;12.81;38.06;102277.03;4997513;28;45288;-68
2022/03/24 06:57:16;;;;;;;;;47.50;36.25;;;;;12.86;37.91;102268.69;4998312;28;45546;-68
2022/03/24 06:59:42;;;;;;;;;49.25;39.75;;;;;13.01;37.54;102283.44;5015958;28;45769;-68
2022/03/24 07:02:08;;;;;;;;;47.75;39.50;;;;;13.12;37.46;102279.94;5015538;28;45447;-69
2022/03/24 07:04:34;;;;;;;;;49.25;39.50;;;;;13.41;36.94;102275.78;5015883;28;45400;-69
2022/03/24 07:06:59;;;;;;;;;51.25;40.50;;;;;13.79;36.37;102287.81;4978581;28;45411;-68
2022/03/24 07:09:25;;;;;;;;;52.25;42.75;;;;;14.37;35.53;102297.13;5006343;28;46574;-69
2022/03/24 07:11:50;;;;;;;;;51.25;43.75;;;;;14.80;35.02;102272.06;5015210;28;45355;-68
2022/03/24 07:14:16;;;;;;;;;50.25;38.50;;;;;15.19;33.55;102271.22;5015858;28;45226;-67
2022/03/24 07:16:41;;;;;;;;;56.00;43.75;;;;;15.60;33.28;102292.63;5019960;28;45504;-67
2022/03/24 07:19:09;;;;;;;;;48.50;41.75;;;;;15.78;32.99;102278.38;5013887;28;47407;-68
2022/03/24 07:21:35;;;;;;;;;51.25;41.25;;;;;16.18;32.54;102287.28;5012794;28;45406;-68
2022/03/24 07:24:01;;;;;;;;;52.25;41.25;;;;;16.41;31.79;102272.53;4996100;28;45296;-67
2022/03/24 07:26:26;;;;;;;;;52.25;40.75;;;;;16.54;31.44;102238.16;4978351;28;45353;-67
2022/03/24 07:28:52;;;;;;;;;52.00;40.00;;;;;16.84;30.59;102230.91;5003137;28;48888;-68
2022/03/24 07:31:19;;;;;;;;;47.75;37.00;;;;;17.47;30.31;102292.78;5019860;28;45361;-70
2022/03/24 07:33:45;;;;;;;;;54.00;43.25;;;;;17.69;30.05;102300.44;5027397;28;45440;-68
2022/03/24 07:36:12;;;;;;;;;52.00;43.25;;;;;17.93;29.58;102300.66;5018665;28;45607;-68
2022/03/24 07:38:38;;;;;;;;;49.25;39.25;;;;;18.11;29.28;102292.59;5018783;28;46346;-67
2022/03/24 07:41:05;;;;;;;;;51.25;42.00;;;;;18.29;28.91;102302.47;4996053;28;45731;-69
2022/03/24 07:43:30;;;;;;;;;53.00;41.50;;;;;18.51;28.71;102292.03;5019245;28;45496;-70
2022/03/24 07:45:55;;;;;;;;;37.33;32.67;;;;;18.78;27.84;102300.97;5017726;28;45288;-69
2022/03/24 07:48:26;;;;;;;;;53.00;41.33;;;;;18.97;27.85;102294.50;5012407;28;46566;-69
2022/03/24 07:50:54;;;;;;;;;37.33;34.33;;;;;19.28;27.66;102301.06;5016377;28;45581;-69
2022/03/24 07:53:41;;;;;;;;;52.33;42.00;;;;;19.49;27.01;102295.22;5013425;28;45327;-68
2022/03/24 07:56:08;;;;;;;;;48.25;37.50;;;;;19.74;26.18;102302.38;4997974;28;45650;-70
2022/03/24 07:58:34;;;;;;;;;53.00;42.33;;;;;19.84;26.22;102307.63;4997803;28;47895;-68
2022/03/24 08:00:59;;;;;;;;;54.00;43.00;;;;;20.03;25.62;102311.88;5017184;28;45505;-68
2022/03/24 08:03:25;;;;;;;;;45.00;38.33;;;;;19.97;25.30;102304.44;5021948;28;45582;-70
2022/03/24 08:05:51;;;;;;;;;48.00;39.33;;;;;20.26;25.26;102310.19;4999792;28;45397;-70
2022/03/24 08:08:18;;;;;;;;;50.67;38.00;;;;;20.41;25.01;102290.59;5017416;28;45756;-68
2022/03/24 08:10:47;;;;;;;;;48.67;38.33;;;;;20.56;24.73;102278.91;5001028;28;46488;-69
2022/03/24 08:13:18;;;;;;;;;48.33;40.00;;;;;20.99;24.33;102311.06;4997563;28;45382;-69
2022/03/24 08:15:44;;;;;;;;;38.00;34.00;;;;;20.52;23.57;102211.91;5017441;28;45665;-71
2022/03/24 08:18:11;;;;;;;;;45.67;37.67;;;;;20.80;23.30;102263.66;4999485;28;47641;-69
2022/03/24 08:20:38;;;;;;;;;43.33;33.00;;;;;21.30;22.82;102308.44;5008935;28;45464;-69
2022/03/24 08:23:08;;;;;;;;;43.33;36.67;;;;;21.51;22.61;102323.03;5003998;28;45485;-68
2022/03/24 08:25:34;;;;;;;;;37.00;35.00;;;;;21.59;22.15;102318.59;5000748;28;45268;-70
2022/03/24 08:28:00;;;;;;;;;40.67;33.33;;;;;21.65;22.22;102307.06;5013901;28;48265;-69
2022/03/24 08:30:26;;;;;;;;;37.00;32.00;;;;;21.90;21.93;102330.25;5018185;28;45459;-68
2022/03/24 08:32:54;;;;;;;;;38.33;35.00;;;;;21.82;21.80;102303.22;5000679;28;45461;-67
2022/03/24 08:35:20;;;;;;;;;44.67;34.33;;;;;22.26;21.72;102308.84;5018912;28;45329;-68
2022/03/24 08:37:46;;;;;;;;;48.00;38.33;;;;;22.48;21.07;102315.25;5000801;28;47466;-69
2022/03/24 08:40:12;;;;;;;;;44.33;34.67;;;;;22.48;20.91;102282.72;5017279;28;45373;-68
2022/03/24 08:42:40;;;;;;;;;39.33;32.67;;;;;22.87;20.52;102314.19;4999396;28;45396;-67
2022/03/24 08:45:07;;;;;;;;;39.67;34.67;;;;;22.95;20.68;102316.78;5017586;28;45547;-69
2022/03/24 08:47:33;;;;;;;;;39.67;33.33;;;;;23.06;20.65;102310.91;5016630;28;46552;-67
2022/03/24 08:50:02;;;;;;;;;41.67;35.67;;;;;23.10;20.14;102309.50;5017137;28;45513;-68
2022/03/24 08:52:28;;;;;;;;;46.33;38.00;;;;;23.34;19.65;102319.19;5017777;28;45352;-67
2022/03/24 08:54:54;;;;;;;;;44.67;35.67;;;;;23.53;20.17;102321.28;5016304;28;45339;-68
2022/03/24 08:57:27;;;;;;;;;22.67;22.33;;;;;23.90;19.84;102322.16;4998198;28;46991;-68
2022/03/24 09:00:00;;;;;;;;;41.67;35.33;;;;;24.30;19.04;102312.50;5016895;28;45456;-67
2022/03/24 09:02:26;;;;;;;;;47.67;36.33;;;;;24.46;18.14;102301.34;5001593;28;45717;-70
2022/03/24 09:04:52;;;;;;;;;44.67;35.33;;;;;24.92;18.56;102321.72;5006495;28;45511;-70
2022/03/24 09:07:22;;;;;;;;;48.67;40.67;;;;;25.10;17.86;102298.41;5017899;28;46717;-68
2022/03/24 09:09:53;;;;;;;;;43.33;38.00;;;;;25.12;18.20;102266.38;5017388;28;45652;-68
2022/03/24 09:12:22;;;;;;;;;46.00;37.67;;;;;25.91;17.96;102333.06;5017138;28;45310;-69
2022/03/24 09:14:53;;;;;;;;;13.33;10.33;;;;;25.86;17.92;102264.72;4999623;28;45661;-69
2022/03/24 09:17:18;;;;;;;;;45.00;38.00;;;;;26.54;17.29;102331.63;5006090;28;45349;-67
2022/03/24 09:19:44;;;;;;;;;40.00;33.67;;;;;26.61;17.03;102324.28;4997391;28;45608;-68
2022/03/24 09:22:10;;;;;;;;;42.00;37.00;;;;;26.83;16.60;102322.16;4996178;28;45390;-67
2022/03/24 09:24:36;;;;;;;;;48.00;38.00;;;;;26.81;16.97;102288.75;5008843;28;45536;-69
2022/03/24 09:27:03;;;;;;;;;43.00;36.67;;;;;27.16;16.46;102323.97;5017217;28;45854;-68
2022/03/24 09:29:29;;;;;;;;;45.67;37.00;;;;;27.32;16.60;102309.81;5018723;28;45340;-69
2022/03/24 09:31:54;;;;;;;;;45.00;34.67;;;;;27.93;16.08;102290.13;5017295;28;45305;-68
2022/03/24 09:34:20;;;;;;;;;46.00;37.33;;;;;28.86;15.60;102327.66;5016727;28;45490;-69
2022/03/24 09:36:45;;;;;;;;;51.67;40.33;;;;;29.70;14.97;102332.31;5016932;28;46370;-68
2022/03/24 09:39:11;;;;;;;;;45.00;36.67;;;;;30.50;14.43;102324.47;5017371;28;45478;-67
2022/03/24 09:41:37;;;;;;;;;49.00;41.00;;;;;30.83;13.79;102270.84;5015113;28;45200;-69
2022/03/24 09:44:04;;;;;;;;;47.33;39.00;;;;;31.25;13.02;102262.44;5016022;28;45343;-70
2022/03/24 09:46:31;;;;;;;;;47.33;38.00;;;;;31.78;12.99;102323.38;5015873;28;45575;-70
2022/03/24 09:48:58;;;;;;;;;45.67;37.00;;;;;32.29;13.17;102313.25;5016873;28;45467;-69
2022/03/24 09:51:27;;;;;;;;;49.00;38.33;;;;;32.59;12.86;102321.13;5016834;28;45336;-72
2022/03/24 09:53:53;;;;;;;;;45.00;37.67;;;;;33.13;12.14;102303.97;5016742;28;45282;-71
2022/03/24 09:56:19;;;;;;;;;47.00;40.33;;;;;33.27;12.13;102297.00;5008286;28;46142;-70
2022/03/24 09:58:48;;;;;;;;;46.33;38.00;;;;;33.12;12.10;102292.13;5007029;28;45205;-71
2022/03/24 10:01:14;;;;;;;;;43.67;36.67;;;;;32.81;12.06;102299.16;5016681;28;45379;-71
2022/03/24 10:03:59;;;;;;;;;39.00;34.33;;;;;31.35;12.71;102292.84;5014796;28;45260;-69
2022/03/24 10:06:24;;;;;;;;;52.00;39.67;;;;;29.90;13.74;102307.31;5014520;28;46542;-72
2022/03/24 10:08:50;;;;;;;;;50.00;40.67;;;;;28.96;14.37;102295.09;5016478;28;45420;-71
2022/03/24 10:11:16;;;;;;;;;34.00;30.67;;;;;28.22;14.97;102299.56;5017285;28;45502;-71
2022/03/24 10:13:55;;;;;;;;;49.00;37.00;;;;;27.35;15.18;102298.47;5016904;28;45570;-70
2022/03/24 10:16:33;;;;;;;;;47.67;36.00;;;;;26.62;16.42;102308.72;5016606;28;45880;-70
2022/03/24 10:19:01;;;;;;;;;48.00;37.00;;;;;25.58;16.87;102262.13;5015506;28;45458;-70
2022/03/24 10:21:32;;;;;;;;;43.00;34.33;;;;;25.52;17.47;102306.53;5007726;28;45249;-70
2022/03/24 10:24:06;;;;;;;;;47.67;39.00;;;;;25.13;17.37;102306.16;5015318;28;45501;-75
2022/03/24 10:26:50;;;;;;;;;47.00;39.33;;;;;24.60;18.01;102309.59;5012950;28;46324;-70
2022/03/24 10:29:17;;;;;;;;;37.00;30.67;;;;;24.06;18.67;102310.19;5020133;28;45795;-70
2022/03/24 10:31:43;;;;;;;;;48.33;38.00;;;;;23.54;19.22;102316.72;5010304;28;45516;-71
2022/03/24 10:34:11;;;;;;;;;46.33;37.33;;;;;23.10;19.78;102284.25;5008088;28;45517;-70
2022/03/24 10:36:38;;;;;;;;;42.67;37.00;;;;;22.86;19.83;102302.50;4998753;28;46077;-70
2022/03/24 10:39:05;;;;;;;;;42.00;36.00;;;;;22.67;20.64;102308.44;4997012;28;45432;-71
2022/03/24 10:41:33;;;;;;;;;43.33;35.67;;;;;22.50;20.81;102309.63;4996355;28;45483;-69
2022/03/24 10:44:12;;;;;;;;;46.67;37.33;;;;;21.61;21.37;102275.94;5011247;28;45444;-71
2022/03/24 10:46:42;;;;;;;;;47.67;38.67;;;;;21.41;21.96;102302.63;5015108;28;45377;-69
2022/03/24 10:49:20;;;;;;;;;38.33;33.33;;;;;21.11;22.17;102285.34;4996264;28;45276;-70
2022/03/24 10:51:48;;;;;;;;;46.33;36.67;;;;;21.19;22.03;102298.81;5011325;28;45546;-71
2022/03/24 10:54:35;;;;;;;;;45.67;34.33;;;;;21.18;22.45;102305.25;4996521;28;46050;-71
2022/03/24 10:57:03;;;;;;;;;48.33;40.00;;;;;21.12;22.34;102287.03;5020568;28;46572;-73
2022/03/24 10:59:34;;;;;;;;;48.00;38.00;;;;;21.16;22.44;102307.28;4997357;28;45301;-72
2022/03/24 11:02:00;;;;;;;;;39.67;35.67;;;;;21.04;22.62;102303.28;4984283;28;45370;-74
2022/03/24 11:04:26;;;;;;;;;39.67;35.00;;;;;20.98;22.80;102304.81;5002900;28;45425;-71
2022/03/24 11:06:53;;;;;;;;;40.33;36.33;;;;;20.71;22.95;102287.16;5014186;28;45444;-69
2022/03/24 11:09:28;;;;;;;;;38.67;32.00;;;;;20.00;23.35;102212.28;5015725;28;45380;-70